Time;durP1;ratioP1;P1;durP2;ratioP2;P2;SDS_P1;SDS_P2;PMS_P1;PMS_P2;Temp;Humidity;BMP_temperature;BMP_pressure;BME280_temperature;BME280_humidity;BME280_pressure;Samples;Min_cycle;Max_cycle;Signal;HPM_P1;HPM_P2
2022/01/21 00:00:45;;;;;;;0.00;0.00;;;2.20;99.90;;;;;;5116865;27;20037;-68
2022/01/21 00:03:11;;;;;;;0.00;0.00;;;2.20;99.90;;;;;;5112681;27;20053;-68
2022/01/21 00:05:37;;;;;;;0.00;0.00;;;2.20;99.90;;;;;;5113797;28;20052;-69
2022/01/21 00:08:03;;;;;;;0.00;0.00;;;2.10;99.90;;;;;;5115702;27;20046;-69
2022/01/21 00:10:29;;;;;;;0.00;0.00;;;2.10;99.90;;;;;;5098362;27;20027;-68
2022/01/21 00:12:56;;;;;;;0.00;0.00;;;2.10;99.90;;;;;;5116913;27;20237;-68
2022/01/21 00:15:21;;;;;;;0.00;0.00;;;2.10;99.90;;;;;;5115329;27;20053;-69
2022/01/21 00:17:47;;;;;;;0.00;0.00;;;2.10;99.90;;;;;;5100955;27;20324;-70
2022/01/21 00:31:09;;;;;;;0.00;0.00;;;2.10;99.90;;;;;;5119553;27;20136;-68
2022/01/21 00:33:35;;;;;;;0.00;0.00;;;2.10;99.90;;;;;;5113590;27;20023;-69
2022/01/21 00:36:01;;;;;;;0.00;0.00;;;2.20;99.90;;;;;;5111664;27;20032;-68
2022/01/21 00:38:29;;;;;;;0.00;0.00;;;2.30;99.90;;;;;;5116979;27;20032;-68
2022/01/21 00:40:58;;;;;;;0.00;0.00;;;2.30;99.90;;;;;;5121268;27;20020;-69
2022/01/21 00:43:32;;;;;;;0.00;0.00;;;2.50;99.90;;;;;;5112524;28;20028;-69
2022/01/21 00:46:02;;;;;;;0.00;0.00;;;2.30;99.90;;;;;;5123770;27;20034;-68
2022/01/21 00:48:27;;;;;;;0.00;0.00;;;2.20;99.90;;;;;;5097639;28;20187;-68
2022/01/21 00:50:54;;;;;;;0.00;0.00;;;2.20;99.90;;;;;;5116230;27;20214;-68
2022/01/21 00:53:20;;;;;;;0.00;0.00;;;2.00;99.90;;;;;;5096120;28;20073;-67
2022/01/21 00:55:46;;;;;;;0.00;0.00;;;2.00;99.90;;;;;;5120297;27;20098;-67
2022/01/21 00:58:11;;;;;;;0.00;0.00;;;2.00;99.90;;;;;;5096657;28;20031;-67
2022/01/21 01:00:37;;;;;;;0.00;0.00;;;2.10;99.90;;;;;;5099749;27;20387;-68
2022/01/21 01:03:04;;;;;;;0.00;0.00;;;2.10;99.90;;;;;;5112145;28;20022;-66
2022/01/21 01:05:30;;;;;;;0.00;0.00;;;2.10;99.90;;;;;;5123155;27;20160;-67
2022/01/21 01:08:14;;;;;;;0.00;0.00;;;2.10;99.90;;;;;;5115205;28;20038;-67
2022/01/21 01:21:21;;;;;;;0.00;0.00;;;1.80;99.90;;;;;;5116610;28;20041;-68
2022/01/21 01:27:35;;;;;;;0.00;0.00;;;1.80;99.90;;;;;;5114145;28;20083;-68
2022/01/21 01:29:32;;;;;;;0.00;0.00;;;1.60;99.90;;;;;;5115304;28;20034;-68
2022/01/21 01:31:58;;;;;;;0.00;0.00;;;1.40;99.90;;;;;;5112631;28;20521;-69
2022/01/21 01:34:23;;;;;;;0.00;0.00;;;1.50;99.90;;;;;;5113442;28;20179;-71
2022/01/21 01:36:49;;;;;;;0.00;0.00;;;1.50;99.90;;;;;;5114961;28;20314;-70
2022/01/21 01:39:41;;;;;;;0.00;0.00;;;1.50;99.90;;;;;;5115125;28;20057;-70
2022/01/21 01:50:22;;;;;;;0.00;0.00;;;1.70;99.90;;;;;;5030284;28;20054;-71
2022/01/21 01:52:48;;;;;;;0.00;0.00;;;1.70;99.90;;;;;;5077828;28;20230;-69
2022/01/21 01:55:14;;;;;;;0.00;0.00;;;1.80;99.90;;;;;;5121511;28;20042;-69
2022/01/21 01:57:40;;;;;;;0.00;0.00;;;1.90;99.90;;;;;;5115740;28;20024;-69
2022/01/21 02:00:06;;;;;;;0.00;0.00;;;1.80;99.90;;;;;;5112220;28;20027;-69
2022/01/21 02:02:32;;;;;;;0.00;0.00;;;1.80;99.90;;;;;;5113813;28;20053;-68
2022/01/21 02:04:58;;;;;;;0.00;0.00;;;1.80;99.90;;;;;;5102352;28;20465;-68
2022/01/21 02:07:23;;;;;;;0.00;0.00;;;1.70;99.90;;;;;;5111514;28;20333;-69
2022/01/21 02:09:49;;;;;;;0.00;0.00;;;1.70;99.90;;;;;;5119974;27;20076;-68
2022/01/21 02:12:15;;;;;;;0.00;0.00;;;1.60;99.90;;;;;;5114921;27;20038;-69
2022/01/21 02:14:48;;;;;;;0.00;0.00;;;1.70;99.90;;;;;;5118706;27;20019;-70
2022/01/21 02:22:49;;;;;;;0.00;0.00;;;1.80;99.90;;;;;;5123325;27;20194;-70
2022/01/21 02:25:17;;;;;;;0.00;0.00;;;1.80;99.90;;;;;;5125810;27;20061;-70
2022/01/21 02:27:58;;;;;;;0.00;0.00;;;1.80;99.90;;;;;;5099794;27;20023;-68
2022/01/21 02:30:25;;;;;;;0.00;0.00;;;1.70;99.90;;;;;;5121204;27;20027;-68
2022/01/21 02:32:56;;;;;;;0.00;0.00;;;1.70;99.90;;;;;;5118886;27;20031;-68
2022/01/21 02:35:23;;;;;;;0.00;0.00;;;1.60;99.90;;;;;;5118483;27;20088;-68
2022/01/21 02:37:49;;;;;;;0.00;0.00;;;1.70;99.90;;;;;;5119932;27;20070;-68
2022/01/21 02:40:16;;;;;;;0.00;0.00;;;1.70;99.90;;;;;;5121373;27;20019;-67
2022/01/21 02:42:43;;;;;;;0.00;0.00;;;1.60;99.90;;;;;;5118457;27;20019;-69
2022/01/21 02:45:10;;;;;;;0.00;0.00;;;1.60;99.90;;;;;;5121332;27;20081;-69
2022/01/21 02:47:36;;;;;;;0.00;0.00;;;1.60;99.90;;;;;;5101571;27;20028;-69
2022/01/21 02:50:02;;;;;;;0.00;0.00;;;1.50;99.90;;;;;;5117684;27;20221;-69
2022/01/21 02:52:30;;;;;;;0.00;0.00;;;1.50;99.90;;;;;;5113865;27;20127;-69
2022/01/21 02:54:56;;;;;;;0.00;0.00;;;1.50;99.90;;;;;;5115099;28;20318;-69
2022/01/21 02:57:22;;;;;;;0.00;0.00;;;1.40;99.90;;;;;;5121210;27;20042;-69
2022/01/21 02:59:49;;;;;;;0.00;0.00;;;1.40;99.90;;;;;;5121740;27;20019;-69
2022/01/21 03:02:15;;;;;;;0.00;0.00;;;1.40;99.90;;;;;;5118197;27;20023;-69
2022/01/21 03:05:03;;;;;;;0.00;0.00;;;1.40;99.90;;;;;;5114986;27;20056;-69
2022/01/21 03:07:28;;;;;;;0.00;0.00;;;1.40;99.90;;;;;;5116557;27;20031;-68
2022/01/21 03:09:54;;;;;;;0.00;0.00;;;1.40;99.90;;;;;;5124840;27;20031;-69
2022/01/21 03:12:21;;;;;;;0.00;0.00;;;1.40;99.90;;;;;;5116863;27;20037;-69
2022/01/21 03:14:47;;;;;;;0.00;0.00;;;1.30;99.90;;;;;;5125257;27;20031;-68
2022/01/21 03:17:13;;;;;;;0.00;0.00;;;1.30;99.90;;;;;;5114053;27;20038;-69
2022/01/21 03:19:39;;;;;;;0.00;0.00;;;1.30;99.90;;;;;;5120200;27;20035;-68
2022/01/21 03:22:05;;;;;;;0.00;0.00;;;1.30;99.90;;;;;;5116534;27;20050;-69
2022/01/21 03:24:31;;;;;;;0.00;0.00;;;1.40;99.90;;;;;;5101074;27;20027;-69
2022/01/21 03:26:57;;;;;;;0.00;0.00;;;1.30;99.90;;;;;;5117746;27;20092;-68
2022/01/21 03:29:22;;;;;;;0.00;0.00;;;1.40;99.90;;;;;;5112996;27;20125;-68
2022/01/21 03:31:48;;;;;;;0.00;0.00;;;1.30;99.90;;;;;;5119466;27;20028;-69
2022/01/21 03:34:14;;;;;;;0.00;0.00;;;1.30;99.90;;;;;;5086662;27;20809;-69
2022/01/21 03:36:40;;;;;;;0.00;0.00;;;1.30;99.90;;;;;;5116998;27;20023;-69
2022/01/21 03:39:06;;;;;;;0.00;0.00;;;1.20;99.90;;;;;;5102626;27;20027;-68
2022/01/21 03:41:32;;;;;;;0.00;0.00;;;1.20;99.90;;;;;;5105632;28;20301;-68
2022/01/21 03:43:58;;;;;;;0.00;0.00;;;1.20;99.90;;;;;;5098111;28;20346;-68
2022/01/21 03:46:24;;;;;;;0.00;0.00;;;1.30;99.90;;;;;;5112228;28;20306;-69
2022/01/21 03:48:50;;;;;;;0.00;0.00;;;1.30;99.90;;;;;;5116705;27;20016;-68
2022/01/21 03:51:18;;;;;;;0.00;0.00;;;1.20;99.90;;;;;;5116543;27;20033;-69
2022/01/21 03:53:46;;;;;;;0.00;0.00;;;1.20;99.90;;;;;;5114069;28;20149;-68
2022/01/21 03:56:13;;;;;;;0.00;0.00;;;1.20;99.90;;;;;;5103054;28;20035;-69
2022/01/21 03:58:39;;;;;;;0.00;0.00;;;1.10;99.90;;;;;;5105690;27;20225;-69
2022/01/21 04:01:04;;;;;;;0.00;0.00;;;1.00;99.90;;;;;;5118882;27;20100;-70
2022/01/21 04:03:30;;;;;;;0.00;0.00;;;1.00;99.90;;;;;;5116462;27;20059;-69
2022/01/21 04:05:56;;;;;;;0.00;0.00;;;0.90;99.90;;;;;;5114163;28;20026;-69
2022/01/21 04:08:22;;;;;;;0.00;0.00;;;0.90;99.90;;;;;;5096784;27;20031;-69
2022/01/21 04:10:48;;;;;;;0.00;0.00;;;0.90;99.90;;;;;;5101927;27;20299;-69
2022/01/21 04:13:16;;;;;;;0.00;0.00;;;1.00;99.90;;;;;;5117480;27;20031;-69
2022/01/21 04:15:44;;;;;;;0.00;0.00;;;0.90;99.90;;;;;;5113260;27;20470;-68
2022/01/21 04:18:13;;;;;;;0.00;0.00;;;1.00;99.90;;;;;;5122766;27;20062;-69
2022/01/21 04:20:38;;;;;;;0.00;0.00;;;1.00;99.90;;;;;;5098952;28;20034;-70
2022/01/21 04:23:05;;;;;;;0.00;0.00;;;0.80;99.90;;;;;;5113179;27;20031;-69
2022/01/21 04:25:31;;;;;;;0.00;0.00;;;0.90;99.90;;;;;;5119781;27;20439;-69
2022/01/21 04:27:57;;;;;;;0.00;0.00;;;0.90;99.90;;;;;;5119179;27;20072;-68
2022/01/21 04:30:23;;;;;;;0.00;0.00;;;0.90;99.90;;;;;;5118027;27;20102;-67
2022/01/21 04:32:48;;;;;;;0.00;0.00;;;0.80;99.90;;;;;;5139046;27;20204;-67
2022/01/21 04:35:14;;;;;;;0.00;0.00;;;0.80;99.90;;;;;;5121120;27;20046;-68
2022/01/21 04:37:47;;;;;;;0.00;0.00;;;0.70;99.90;;;;;;5120925;27;20019;-67
2022/01/21 04:40:16;;;;;;;0.00;0.00;;;0.80;99.90;;;;;;5139579;27;20064;-67
2022/01/21 04:48:11;;;;;;;0.00;0.00;;;0.90;99.90;;;;;;5139513;27;20026;-68
2022/01/21 04:50:51;;;;;;;0.00;0.00;;;0.90;99.90;;;;;;5120727;27;20027;-67
2022/01/21 04:53:17;;;;;;;0.00;0.00;;;0.90;99.90;;;;;;5120868;27;20015;-68
2022/01/21 04:55:42;;;;;;;0.00;0.00;;;0.80;99.90;;;;;;5120475;27;20091;-68
2022/01/21 04:58:08;;;;;;;0.00;0.00;;;0.80;99.90;;;;;;5121180;27;20042;-68
2022/01/21 05:00:34;;;;;;;0.00;0.00;;;0.80;99.90;;;;;;5120517;27;20067;-67
2022/01/21 05:03:00;;;;;;;0.00;0.00;;;0.70;99.90;;;;;;5138607;27;20019;-66
2022/01/21 05:05:26;;;;;;;0.00;0.00;;;0.70;99.90;;;;;;5120580;27;20026;-67
2022/01/21 05:07:53;;;;;;;0.00;0.00;;;0.70;99.90;;;;;;5120638;27;20026;-68
2022/01/21 05:10:19;;;;;;;0.00;0.00;;;0.80;99.90;;;;;;5138798;27;20336;-68
2022/01/21 05:12:45;;;;;;;0.00;0.00;;;0.70;99.90;;;;;;5120903;28;20085;-68
2022/01/21 05:16:01;;;;;;;0.00;0.00;;;0.70;99.90;;;;;;5139102;28;20019;-67
2022/01/21 05:17:56;;;;;;;0.00;0.00;;;0.70;99.90;;;;;;5124900;28;20094;-67
2022/01/21 05:20:22;;;;;;;0.00;0.00;;;0.70;99.90;;;;;;5138439;28;20183;-67
2022/01/21 05:22:48;;;;;;;0.00;0.00;;;0.70;99.90;;;;;;5121084;28;20172;-68
2022/01/21 05:25:18;;;;;;;0.00;0.00;;;0.70;99.90;;;;;;5139158;28;20298;-68
2022/01/21 05:27:51;;;;;;;0.00;0.00;;;0.70;99.90;;;;;;5121221;28;20019;-67
2022/01/21 05:30:17;;;;;;;0.00;0.00;;;0.70;99.90;;;;;;5139466;28;20015;-67
2022/01/21 05:32:44;;;;;;;0.00;0.00;;;0.60;99.90;;;;;;5120953;28;20015;-67
2022/01/21 05:35:10;;;;;;;0.00;0.00;;;0.60;99.90;;;;;;5139255;28;20298;-67
2022/01/21 05:37:36;;;;;;;0.00;0.00;;;0.60;99.90;;;;;;5120470;28;20279;-67
2022/01/21 05:40:05;;;;;;;0.00;0.00;;;0.60;99.90;;;;;;5139224;28;20259;-67
2022/01/21 05:42:34;;;;;;;0.00;0.00;;;0.60;99.90;;;;;;5119653;28;20015;-67
2022/01/21 05:47:26;;;;;;;0.00;0.00;;;0.60;99.90;;;;;;5142801;27;20031;-67
2022/01/21 05:49:52;;;;;;;0.00;0.00;;;0.70;99.90;;;;;;5124878;27;20090;-68
2022/01/21 05:52:19;;;;;;;0.00;0.00;;;0.70;99.90;;;;;;5124515;27;20015;-67
2022/01/21 05:54:46;;;;;;;0.00;0.00;;;0.60;99.90;;;;;;5125110;27;20027;-67
2022/01/21 05:57:15;;;;;;;0.00;0.00;;;0.60;99.90;;;;;;5124928;27;20026;-67
2022/01/21 05:59:41;;;;;;;0.00;0.00;;;0.60;99.90;;;;;;5124208;27;20019;-67
2022/01/21 06:02:08;;;;;;;0.00;0.00;;;0.60;99.90;;;;;;5124496;27;20059;-68
2022/01/21 06:04:36;;;;;;;0.00;0.00;;;0.50;99.90;;;;;;5123839;27;20357;-70
2022/01/21 06:07:04;;;;;;;0.00;0.00;;;0.50;99.90;;;;;;5141596;27;20015;-70
2022/01/21 06:09:30;;;;;;;0.00;0.00;;;0.50;99.90;;;;;;5123748;27;20033;-74
2022/01/21 06:11:56;;;;;;;0.00;0.00;;;0.50;99.90;;;;;;5142932;27;20015;-70
2022/01/21 06:14:24;;;;;;;0.00;0.00;;;0.50;99.90;;;;;;5124071;27;20366;-67
2022/01/21 06:16:50;;;;;;;0.00;0.00;;;0.60;99.90;;;;;;5124448;27;20022;-69
2022/01/21 06:19:16;;;;;;;0.00;0.00;;;0.50;99.90;;;;;;5123805;27;20046;-69
2022/01/21 06:21:42;;;;;;;0.00;0.00;;;0.50;99.90;;;;;;5123825;27;20293;-69
2022/01/21 06:24:08;;;;;;;0.00;0.00;;;0.50;99.90;;;;;;5142290;27;20054;-71
2022/01/21 06:26:35;;;;;;;0.00;0.00;;;0.40;99.90;;;;;;5123691;27;20048;-73
2022/01/21 06:29:01;;;;;;;0.00;0.00;;;0.40;99.90;;;;;;5142589;27;20026;-75
2022/01/21 06:31:27;;;;;;;0.00;0.00;;;0.50;99.90;;;;;;5141658;27;20098;-71
2022/01/21 06:33:53;;;;;;;0.00;0.00;;;0.50;99.90;;;;;;5142268;27;20019;-74
2022/01/21 06:36:19;;;;;;;0.00;0.00;;;0.50;99.90;;;;;;5123199;27;20022;-69
2022/01/21 06:38:46;;;;;;;0.00;0.00;;;0.50;99.90;;;;;;5142841;27;20267;-70
2022/01/21 06:41:12;;;;;;;0.00;0.00;;;0.50;99.90;;;;;;5123754;27;20095;-72
2022/01/21 06:43:38;;;;;;;0.00;0.00;;;0.50;99.90;;;;;;5141671;27;20105;-69
2022/01/21 06:46:04;;;;;;;0.00;0.00;;;0.50;99.90;;;;;;5142382;27;20011;-68
2022/01/21 06:48:30;;;;;;;0.00;0.00;;;0.50;99.90;;;;;;5122709;27;20025;-70
2022/01/21 06:50:56;;;;;;;0.00;0.00;;;0.50;99.90;;;;;;5124042;27;20037;-71
2022/01/21 06:53:21;;;;;;;0.00;0.00;;;0.50;99.90;;;;;;5123282;27;20314;-70
2022/01/21 06:55:47;;;;;;;0.00;0.00;;;0.40;99.90;;;;;;5122438;27;20026;-70
2022/01/21 06:58:13;;;;;;;0.00;0.00;;;0.40;99.90;;;;;;5141724;27;20034;-73
2022/01/21 07:00:39;;;;;;;0.00;0.00;;;0.50;99.90;;;;;;5122998;27;20026;-69
2022/01/21 07:03:05;;;;;;;0.00;0.00;;;0.50;99.90;;;;;;5140857;27;20019;-69
2022/01/21 07:05:31;;;;;;;0.00;0.00;;;0.50;99.90;;;;;;5121807;27;20084;-71
2022/01/21 07:07:59;;;;;;;0.00;0.00;;;0.50;99.90;;;;;;5122013;27;20297;-70
2022/01/21 07:10:25;;;;;;;0.00;0.00;;;0.60;99.90;;;;;;5140932;27;20018;-70
2022/01/21 07:12:51;;;;;;;0.00;0.00;;;0.50;99.90;;;;;;5123461;27;20045;-72
2022/01/21 07:15:19;;;;;;;0.00;0.00;;;0.50;99.90;;;;;;5141952;27;20023;-70
2022/01/21 07:17:46;;;;;;;0.00;0.00;;;0.50;99.90;;;;;;5124226;27;20041;-71
2022/01/21 07:20:13;;;;;;;0.00;0.00;;;0.50;99.90;;;;;;5143093;27;20016;-71
2022/01/21 07:22:39;;;;;;;0.00;0.00;;;0.60;99.90;;;;;;5142092;27;20173;-70
2022/01/21 07:25:06;;;;;;;0.00;0.00;;;0.60;99.90;;;;;;5124273;27;20023;-71
2022/01/21 07:27:31;;;;;;;0.00;0.00;;;0.60;99.90;;;;;;5142057;27;20016;-71
2022/01/21 07:29:57;;;;;;;0.00;0.00;;;0.60;99.90;;;;;;5142655;27;20026;-70
2022/01/21 07:32:23;;;;;;;0.00;0.00;;;0.60;99.90;;;;;;5141700;27;20276;-72
2022/01/21 07:34:49;;;;;;;0.00;0.00;;;0.60;99.90;;;;;;5124021;27;20313;-70
2022/01/21 07:37:15;;;;;;;0.00;0.00;;;0.60;99.90;;;;;;5123997;27;20026;-72
2022/01/21 07:39:41;;;;;;;0.00;0.00;;;0.60;99.90;;;;;;5123508;27;20026;-71
2022/01/21 07:42:07;;;;;;;0.00;0.00;;;0.60;99.90;;;;;;5142398;27;20351;-72
2022/01/21 07:44:33;;;;;;;0.00;0.00;;;0.70;99.90;;;;;;5123500;27;20023;-73
2022/01/21 07:46:59;;;;;;;0.00;0.00;;;0.60;99.90;;;;;;5123572;27;20029;-71
2022/01/21 07:49:25;;;;;;;0.00;0.00;;;0.70;99.90;;;;;;5123091;27;20030;-71
2022/01/21 07:51:51;;;;;;;0.00;0.00;;;0.70;99.90;;;;;;5141706;27;20014;-69
2022/01/21 07:54:17;;;;;;;0.00;0.00;;;0.70;99.90;;;;;;5123113;27;20264;-71
2022/01/21 07:56:43;;;;;;;0.00;0.00;;;0.70;99.90;;;;;;5123107;27;20018;-71
2022/01/21 07:59:11;;;;;;;0.00;0.00;;;0.70;99.90;;;;;;5141457;27;20026;-71
2022/01/21 08:01:38;;;;;;;0.00;0.00;;;0.70;99.90;;;;;;5119664;27;20015;-70
2022/01/21 08:04:04;;;;;;;0.00;0.00;;;0.70;99.90;;;;;;5122596;27;20050;-71
2022/01/21 08:06:31;;;;;;;0.00;0.00;;;0.70;99.90;;;;;;5122592;27;20402;-73
2022/01/21 08:08:57;;;;;;;0.00;0.00;;;0.70;99.90;;;;;;5123012;27;20297;-72
2022/01/21 08:11:24;;;;;;;0.00;0.00;;;0.80;99.90;;;;;;5122790;27;20015;-73
2022/01/21 08:13:50;;;;;;;0.00;0.00;;;0.80;99.90;;;;;;5122023;27;20037;-72
2022/01/21 08:16:18;;;;;;;0.00;0.00;;;0.80;99.90;;;;;;5122655;27;20147;-73
2022/01/21 08:18:43;;;;;;;0.00;0.00;;;0.80;99.90;;;;;;5122593;27;20310;-72
2022/01/21 08:21:10;;;;;;;0.00;0.00;;;0.90;99.90;;;;;;5140238;27;20014;-74
2022/01/21 08:23:36;;;;;;;0.00;0.00;;;0.90;99.90;;;;;;5122169;27;20047;-71
2022/01/21 08:26:02;;;;;;;0.00;0.00;;;0.90;99.90;;;;;;5122207;27;20019;-71
2022/01/21 08:28:28;;;;;;;0.00;0.00;;;1.00;99.90;;;;;;5121996;27;20097;-70
2022/01/21 08:30:53;;;;;;;0.00;0.00;;;1.00;99.90;;;;;;5121997;27;20179;-74
2022/01/21 08:33:20;;;;;;;0.00;0.00;;;1.00;99.90;;;;;;5121891;27;20019;-71
2022/01/21 08:35:46;;;;;;;0.00;0.00;;;1.00;99.90;;;;;;5140651;27;20022;-72
2022/01/21 08:38:11;;;;;;;0.00;0.00;;;1.00;99.90;;;;;;5122427;27;20186;-70
2022/01/21 08:40:37;;;;;;;0.00;0.00;;;1.00;99.90;;;;;;5121711;27;20225;-72
2022/01/21 08:43:03;;;;;;;0.00;0.00;;;0.90;99.90;;;;;;5139946;27;20154;-71
2022/01/21 08:45:29;;;;;;;0.00;0.00;;;0.90;99.90;;;;;;5120743;27;20019;-71
2022/01/21 08:47:55;;;;;;;0.00;0.00;;;1.00;99.90;;;;;;5140044;27;20038;-72
2022/01/21 08:50:22;;;;;;;0.00;0.00;;;0.90;99.90;;;;;;5121135;27;20015;-72
2022/01/21 08:52:54;;;;;;;0.00;0.00;;;0.90;99.90;;;;;;5139898;27;20027;-72
2022/01/21 08:55:20;;;;;;;0.00;0.00;;;0.90;99.90;;;;;;5139288;27;20034;-70
2022/01/21 08:57:47;;;;;;;0.00;0.00;;;1.10;99.90;;;;;;5121518;27;20034;-72
2022/01/21 09:00:15;;;;;;;0.00;0.00;;;1.00;99.90;;;;;;5139828;27;20015;-71
2022/01/21 09:02:41;;;;;;;0.00;0.00;;;1.00;99.90;;;;;;5137498;27;20037;-72
2022/01/21 09:05:07;;;;;;;0.00;0.00;;;1.00;99.90;;;;;;5121429;28;20106;-75
2022/01/21 09:07:33;;;;;;;0.00;0.00;;;0.90;99.90;;;;;;5139221;27;20098;-69
2022/01/21 09:09:59;;;;;;;0.00;0.00;;;1.00;99.90;;;;;;5121400;27;20020;-70
2022/01/21 09:12:25;;;;;;;0.00;0.00;;;0.90;99.90;;;;;;5120867;28;20019;-75
2022/01/21 09:14:51;;;;;;;0.00;0.00;;;0.90;99.90;;;;;;5121694;27;20132;-68
2022/01/21 09:17:18;;;;;;;0.00;0.00;;;0.90;99.90;;;;;;5121881;28;20322;-71
2022/01/21 09:19:44;;;;;;;0.00;0.00;;;1.00;99.90;;;;;;5139150;27;20019;-70
2022/01/21 09:22:10;;;;;;;0.00;0.00;;;1.00;99.90;;;;;;5121089;28;20055;-70
2022/01/21 09:24:36;;;;;;;0.00;0.00;;;1.00;99.90;;;;;;5120513;28;20094;-70
2022/01/21 09:27:03;;;;;;;0.00;0.00;;;1.00;99.90;;;;;;5139582;28;20011;-70
2022/01/21 09:29:29;;;;;;;0.00;0.00;;;0.90;99.90;;;;;;5139135;28;20022;-70
2022/01/21 09:31:54;;;;;;;0.00;0.00;;;1.00;99.90;;;;;;5121252;28;20159;-70
2022/01/21 09:34:21;;;;;;;0.00;0.00;;;1.00;99.90;;;;;;5139190;28;20046;-70
2022/01/21 09:36:46;;;;;;;0.00;0.00;;;1.10;99.90;;;;;;5120880;28;20103;-70
2022/01/21 09:39:13;;;;;;;0.00;0.00;;;1.10;99.90;;;;;;5121372;28;20205;-71
2022/01/21 09:41:43;;;;;;;0.00;0.00;;;1.10;99.90;;;;;;5120552;28;20087;-70
2022/01/21 09:44:14;;;;;;;0.00;0.00;;;1.20;99.90;;;;;;5139484;28;20368;-70
2022/01/21 09:46:44;;;;;;;0.00;0.00;;;1.10;99.90;;;;;;5138599;28;20276;-70
2022/01/21 09:51:57;;;;;;;0.00;0.00;;;1.10;99.90;;;;;;5139441;28;20330;-71
2022/01/21 09:54:25;;;;;;;0.00;0.00;;;1.10;99.90;;;;;;5120265;28;20022;-68
2022/01/21 09:56:53;;;;;;;0.00;0.00;;;1.20;99.90;;;;;;5138854;28;20365;-69
2022/01/21 09:59:21;;;;;;;0.00;0.00;;;1.20;99.90;;;;;;5138646;28;20243;-68
2022/01/21 10:01:56;;;;;;;0.00;0.00;;;1.20;99.90;;;;;;5139296;28;20019;-68
2022/01/21 10:04:26;;;;;;;0.00;0.00;;;1.30;99.90;;;;;;5120658;28;20070;-69
2022/01/21 10:06:54;;;;;;;0.00;0.00;;;1.20;99.90;;;;;;5139386;28;20015;-69
2022/01/21 10:09:22;;;;;;;0.00;0.00;;;1.20;99.90;;;;;;5120607;28;20023;-67
2022/01/21 10:11:49;;;;;;;0.00;0.00;;;1.20;99.90;;;;;;5121244;28;20098;-68
2022/01/21 10:14:23;;;;;;;0.00;0.00;;;1.20;99.90;;;;;;5121152;28;20082;-68
2022/01/21 10:16:50;;;;;;;0.00;0.00;;;1.30;99.90;;;;;;5121012;28;20027;-68
2022/01/21 10:19:48;;;;;;;0.00;0.00;;;1.30;99.90;;;;;;5121033;28;20256;-69
2022/01/21 10:22:18;;;;;;;0.00;0.00;;;1.30;99.90;;;;;;5121022;28;20038;-68
2022/01/21 10:24:54;;;;;;;0.00;0.00;;;1.30;99.90;;;;;;5121188;28;20030;-70
2022/01/21 10:27:32;;;;;;;0.00;0.00;;;1.30;99.90;;;;;;5120060;28;20019;-67
2022/01/21 10:29:58;;;;;;;0.00;0.00;;;1.30;99.90;;;;;;5120848;28;20203;-67
2022/01/21 10:32:42;;;;;;;0.00;0.00;;;1.30;99.90;;;;;;5123860;27;20015;-68
2022/01/21 10:35:31;;;;;;;0.00;0.00;;;1.30;99.90;;;;;;5124822;27;20226;-68
2022/01/21 10:38:29;;;;;;;0.00;0.00;;;1.40;99.90;;;;;;5124599;27;20040;-68
2022/01/21 10:41:06;;;;;;;0.00;0.00;;;1.40;99.90;;;;;;5142780;27;20086;-67
2022/01/21 10:43:32;;;;;;;0.00;0.00;;;1.40;99.90;;;;;;5142467;27;20079;-68
2022/01/21 10:45:59;;;;;;;0.00;0.00;;;1.40;99.90;;;;;;5142568;27;20063;-67
2022/01/21 10:48:50;;;;;;;0.00;0.00;;;1.40;99.90;;;;;;5142305;27;20026;-67
2022/01/21 10:51:20;;;;;;;0.00;0.00;;;1.40;99.90;;;;;;5124034;27;20055;-67
2022/01/21 10:53:46;;;;;;;0.00;0.00;;;1.40;99.90;;;;;;5124307;27;20053;-69
2022/01/21 10:56:17;;;;;;;0.00;0.00;;;1.50;99.90;;;;;;5142292;27;20206;-66
2022/01/21 10:58:51;;;;;;;0.00;0.00;;;1.50;99.90;;;;;;5123963;27;20083;-68
2022/01/21 11:01:20;;;;;;;0.00;0.00;;;1.50;99.90;;;;;;5142580;27;20238;-67
2022/01/21 11:04:08;;;;;;;0.00;0.00;;;1.60;99.90;;;;;;5123625;27;20042;-67
2022/01/21 11:06:48;;;;;;;0.00;0.00;;;1.60;99.90;;;;;;5123536;27;20301;-67
2022/01/21 11:09:22;;;;;;;0.00;0.00;;;1.60;99.90;;;;;;5124134;27;20098;-67
2022/01/21 11:12:09;;;;;;;0.00;0.00;;;1.60;99.90;;;;;;5123843;27;20127;-66
2022/01/21 11:14:35;;;;;;;0.00;0.00;;;1.60;99.90;;;;;;5123261;27;20026;-67
2022/01/21 11:17:17;;;;;;;0.00;0.00;;;1.70;99.90;;;;;;5141975;27;20015;-67
2022/01/21 11:20:01;;;;;;;0.00;0.00;;;1.70;99.90;;;;;;5141655;27;20015;-66
2022/01/21 11:22:29;;;;;;;0.00;0.00;;;1.70;99.90;;;;;;5141505;27;20325;-67
2022/01/21 11:24:59;;;;;;;0.00;0.00;;;1.70;99.90;;;;;;5123703;27;20294;-67
2022/01/21 11:27:25;;;;;;;0.00;0.00;;;1.70;99.90;;;;;;5122713;27;20063;-66
2022/01/21 11:29:53;;;;;;;0.00;0.00;;;1.80;99.90;;;;;;5141819;27;20299;-66
2022/01/21 11:32:19;;;;;;;0.00;0.00;;;1.80;99.90;;;;;;5141896;27;20042;-67
2022/01/21 11:34:46;;;;;;;0.00;0.00;;;1.80;99.90;;;;;;5140860;27;20239;-67
2022/01/21 11:37:12;;;;;;;0.00;0.00;;;1.70;99.90;;;;;;5141725;27;20015;-68
2022/01/21 11:39:39;;;;;;;0.00;0.00;;;1.80;99.90;;;;;;5141064;27;20041;-68
2022/01/21 11:42:07;;;;;;;0.00;0.00;;;1.80;99.90;;;;;;5122774;27;20119;-68
2022/01/21 11:44:37;;;;;;;0.00;0.00;;;1.90;99.90;;;;;;5141463;27;20019;-68
2022/01/21 11:47:17;;;;;;;0.00;0.00;;;1.80;99.90;;;;;;5122777;27;20019;-68
2022/01/21 11:49:54;;;;;;;0.00;0.00;;;1.90;99.90;;;;;;5141333;27;20025;-66
2022/01/21 11:52:20;;;;;;;0.00;0.00;;;1.80;99.90;;;;;;5123013;27;20015;-67
2022/01/21 11:54:48;;;;;;;0.00;0.00;;;1.80;99.90;;;;;;5122392;27;20121;-67
2022/01/21 11:57:14;;;;;;;0.00;0.00;;;1.80;99.90;;;;;;5140976;27;20019;-68
2022/01/21 12:02:15;;;;;;;0.00;0.00;;;1.80;99.90;;;;;;5141168;27;20063;-67
2022/01/21 12:04:46;;;;;;;0.00;0.00;;;1.80;99.90;;;;;;5122130;27;20330;-67
2022/01/21 12:07:34;;;;;;;0.00;0.00;;;1.80;99.90;;;;;;5122511;27;20038;-67
2022/01/21 12:10:03;;;;;;;0.00;0.00;;;1.80;99.90;;;;;;5122736;27;20027;-67
2022/01/21 12:12:56;;;;;;;0.00;0.00;;;1.80;99.90;;;;;;5140472;27;20054;-67
2022/01/21 12:20:57;;;;;;;0.00;0.00;;;1.80;99.90;;;;;;5140999;27;20029;-67
2022/01/21 12:23:25;;;;;;;0.00;0.00;;;1.80;99.90;;;;;;5122339;27;20026;-67
2022/01/21 12:26:23;;;;;;;0.00;0.00;;;1.70;99.90;;;;;;5122271;27;20046;-66
2022/01/21 12:28:52;;;;;;;0.00;0.00;;;1.80;99.90;;;;;;5102379;27;20043;-68
2022/01/21 12:31:19;;;;;;;;;;;1.80;99.90;;;;;;5122723;27;20044;-67
2022/01/21 12:34:04;;;;;;;0.00;0.00;;;1.80;99.90;;;;;;5140430;27;19899;-67
2022/01/21 12:36:34;;;;;;;0.00;0.00;;;1.90;99.90;;;;;;5140182;27;20301;-71
2022/01/21 12:41:40;;;;;;;0.00;0.00;;;2.20;99.90;;;;;;5139705;27;20333;-69
2022/01/21 12:44:08;;;;;;;0.00;0.00;;;2.30;99.90;;;;;;5140894;27;20026;-67
2022/01/21 12:46:53;;;;;;;0.00;0.00;;;2.30;99.90;;;;;;5121723;27;20031;-67
2022/01/21 12:49:35;;;;;;;0.00;0.00;;;2.40;99.90;;;;;;5122127;27;20054;-67
2022/01/21 12:57:33;;;;;;;0.00;0.00;;;2.50;99.90;;;;;;5139136;27;20026;-66
2022/01/21 13:00:07;;;;;;;0.00;0.00;;;2.50;99.90;;;;;;5139271;27;20047;-68
2022/01/21 13:02:33;;;;;;;0.00;0.00;;;2.50;99.90;;;;;;5120358;27;20019;-69
2022/01/21 13:05:27;;;;;;;0.00;0.00;;;2.50;99.90;;;;;;5121311;27;20230;-68
2022/01/21 13:08:14;;;;;;;0.00;0.00;;;2.60;99.90;;;;;;5120768;27;20144;-66
2022/01/21 13:10:40;;;;;;;0.00;0.00;;;2.60;99.90;;;;;;5120610;28;20014;-68
2022/01/21 13:15:38;;;;;;;0.00;0.00;;;2.60;99.90;;;;;;5138802;27;20035;-67
2022/01/21 13:18:12;;;;;;;0.00;0.00;;;2.60;99.90;;;;;;5121146;28;20102;-67
2022/01/21 13:20:41;;;;;;;0.00;0.00;;;2.60;99.90;;;;;;5120497;28;20061;-67
2022/01/21 13:23:07;;;;;;;0.00;0.00;;;2.60;99.90;;;;;;5120793;28;20023;-67
2022/01/21 13:25:33;;;;;;;0.00;0.00;;;2.60;99.90;;;;;;5138843;28;20116;-69
2022/01/21 13:28:03;;;;;;;0.00;0.00;;;2.60;99.90;;;;;;5120916;28;20076;-68
2022/01/21 13:30:31;;;;;;;0.00;0.00;;;2.60;99.90;;;;;;5120590;28;20290;-68
2022/01/21 13:33:04;;;;;;;0.00;0.00;;;2.50;99.90;;;;;;5139571;28;20306;-68
2022/01/21 13:35:31;;;;;;;0.00;0.00;;;2.60;99.90;;;;;;5120113;28;20053;-70
2022/01/21 13:38:05;;;;;;;0.00;0.00;;;2.50;99.90;;;;;;5119629;28;20019;-68
2022/01/21 13:40:35;;;;;;;0.00;0.00;;;2.50;99.90;;;;;;5120324;28;20098;-71
2022/01/21 13:43:21;;;;;;;0.00;0.00;;;2.50;99.90;;;;;;5120793;28;20015;-69
2022/01/21 13:46:01;;;;;;;0.00;0.00;;;2.50;99.90;;;;;;5120088;28;20159;-68
2022/01/21 13:48:29;;;;;;;0.00;0.00;;;2.40;99.90;;;;;;5138748;28;20043;-67
2022/01/21 13:50:57;;;;;;;0.00;0.00;;;2.40;99.90;;;;;;5138486;28;20056;-67
